CheckWX is a tool to help pilots better visualize weather data.  It is not intended as a substitute for an official pre-flight weather briefing.

19:14:03 UTC

KGGG TAF
East Texas Regional Airport
Longview, Texas, USA
KGGG 271800Z 2718/2818 00000KT P6SM SCT012 FM272000 15005KT P6SM SCT120 FM280200 15005KT P6SM SCT015 BKN080 FM280900 14007KT P6SM OVC050 FM281200 15005KT 2SM -RA BR OVC004 FM281500 13012KT 2SM -RA BR OVC007

Jan-27@
18:00 UTC

Jan-27 @ 18:00 UTC

Jan-27@
20:00 UTC

Jan-27 @ 20:00 UTC

KGGG 271800Z 2718/2818 00000KT P6SM SCT012
Cloud Levels
  • Scattered at 1,200' AGL

Jan-27@
20:00 UTC

Jan-27 @ 20:00 UTC

Jan-28@
02:00 UTC

Jan-28 @ 02:00 UTC

FM272000 15005KT P6SM SCT120

From

From Standard forecast or significant change

Wind
  • 150° at 5 KTS
Cloud Levels
  • Scattered at 12,000' AGL

Jan-28@
02:00 UTC

Jan-28 @ 02:00 UTC

Jan-28@
09:00 UTC

Jan-28 @ 09:00 UTC

FM280200 15005KT P6SM SCT015 BKN080

From

From Standard forecast or significant change

Wind
  • 150° at 5 KTS
Cloud Levels
  • Scattered at 1,500' AGL
  • Broken at 8,000' AGL

Jan-28@
09:00 UTC

Jan-28 @ 09:00 UTC

Jan-28@
12:00 UTC

Jan-28 @ 12:00 UTC

FM280900 14007KT P6SM OVC050

From

From Standard forecast or significant change

Wind
  • 140° at 7 KTS
Cloud Levels
  • Overcast at 5,000' AGL

Jan-28@
12:00 UTC

Jan-28 @ 12:00 UTC

Jan-28@
15:00 UTC

Jan-28 @ 15:00 UTC

FM281200 15005KT 2SM -RA BR OVC004

From

From Standard forecast or significant change

Wind
  • 150° at 5 KTS
Conditions
Light Rain, Mist
Cloud Levels
  • Overcast at 400' AGL

Jan-28@
15:00 UTC

Jan-28 @ 15:00 UTC

Jan-28@
18:00 UTC

Jan-28 @ 18:00 UTC

FM281500 13012KT 2SM -RA BR OVC007

From

From Standard forecast or significant change

Wind
  • 130° at 12 KTS
Conditions
Light Rain, Mist
Cloud Levels
  • Overcast at 700' AGL